Time;durP1;ratioP1;P1;durP2;ratioP2;P2;SDS_P1;SDS_P2;PMS_P1;PMS_P2;Temp;Humidity;BMP_temperature;BMP_pressure;BME280_temperature;BME280_humidity;BME280_pressure;Samples;Min_cycle;Max_cycle;Signal;HPM_P1;HPM_P2
2022/07/16 00:02:42;;;;;;;4.00;2.60;;;16.60;99.90;;;;;;4984128;28;20456;-74
2022/07/16 00:05:09;;;;;;;6.50;3.10;;;16.60;99.90;;;;;;5047197;28;20476;-74
2022/07/16 00:07:40;;;;;;;3.97;2.60;;;16.60;99.90;;;;;;5052891;28;20550;-78
2022/07/16 00:10:10;;;;;;;4.40;4.00;;;16.60;99.90;;;;;;5042679;28;20452;-75
2022/07/16 00:12:39;;;;;;;3.97;3.53;;;16.60;99.90;;;;;;5049939;28;20542;-76
2022/07/16 00:15:07;;;;;;;4.20;2.90;;;16.60;99.90;;;;;;5039732;28;20506;-75
2022/07/16 00:17:34;;;;;;;4.43;3.00;;;16.60;99.90;;;;;;5040560;28;20476;-75
2022/07/16 00:20:00;;;;;;;3.00;2.70;;;16.60;99.90;;;;;;5042507;28;20571;-74
2022/07/16 00:22:27;;;;;;;2.23;1.93;;;16.60;99.90;;;;;;5034735;28;20989;-75
2022/07/16 00:24:54;;;;;;;3.87;2.40;;;16.60;99.90;;;;;;5040483;28;20466;-75
2022/07/16 00:27:22;;;;;;;3.70;2.47;;;16.50;99.90;;;;;;5040207;28;20533;-74
2022/07/16 00:29:51;;;;;;;7.37;2.60;;;16.50;99.90;;;;;;5039310;28;20804;-76
2022/07/16 00:32:18;;;;;;;3.80;2.60;;;16.50;99.90;;;;;;5039547;28;20517;-74
2022/07/16 00:34:45;;;;;;;6.47;3.13;;;16.30;99.90;;;;;;5043687;28;20544;-75
2022/07/16 00:37:12;;;;;;;2.80;2.45;;;16.30;99.90;;;;;;5036982;28;20776;-75
2022/07/16 00:39:39;;;;;;;3.17;2.87;;;16.30;99.90;;;;;;5036860;28;20222;-75
2022/07/16 00:42:07;;;;;;;4.45;2.60;;;16.30;99.90;;;;;;5050248;28;20842;-75
2022/07/16 00:44:35;;;;;;;5.75;2.72;;;16.20;99.90;;;;;;5046892;28;20698;-75
2022/07/16 00:47:02;;;;;;;4.55;2.72;;;16.20;99.90;;;;;;5054680;28;20601;-76
2022/07/16 00:49:29;;;;;;;6.75;2.47;;;16.20;99.90;;;;;;5042496;28;20227;-74
2022/07/16 00:51:56;;;;;;;3.40;2.83;;;16.10;99.90;;;;;;5040634;28;20207;-74
2022/07/16 00:54:23;;;;;;;3.85;2.58;;;16.10;99.90;;;;;;5047592;28;20282;-75
2022/07/16 00:56:51;;;;;;;5.20;3.13;;;16.30;99.90;;;;;;5036507;28;20342;-75
2022/07/16 00:59:18;;;;;;;3.20;2.90;;;16.20;99.90;;;;;;5037547;28;20458;-75
2022/07/16 01:01:46;;;;;;;3.30;3.00;;;16.30;99.90;;;;;;5042142;28;20230;-75
2022/07/16 01:04:14;;;;;;;6.20;3.53;;;16.30;99.90;;;;;;5042772;28;20613;-76
2022/07/16 01:06:41;;;;;;;5.20;2.20;;;16.30;99.90;;;;;;5040732;28;20458;-75
2022/07/16 01:09:10;;;;;;;8.20;2.90;;;16.30;99.90;;;;;;5039298;28;20476;-72
2022/07/16 01:11:37;;;;;;;4.50;2.83;;;16.30;99.90;;;;;;5035530;28;20449;-74
2022/07/16 01:14:06;;;;;;;4.50;2.77;;;16.30;99.90;;;;;;5057054;28;20549;-75
2022/07/16 01:16:33;;;;;;;4.23;3.30;;;16.30;99.90;;;;;;5039788;28;20556;-74
2022/07/16 01:19:02;;;;;;;3.30;2.57;;;16.30;99.90;;;;;;5053541;28;20453;-74
2022/07/16 01:21:31;;;;;;;3.90;2.17;;;16.30;99.90;;;;;;5042851;28;20533;-75
2022/07/16 01:23:59;;;;;;;2.00;1.80;;;16.30;99.90;;;;;;5044588;28;20464;-74
2022/07/16 01:26:26;;;;;;;3.10;2.40;;;16.30;99.90;;;;;;5051838;28;20462;-74
2022/07/16 01:28:53;;;;;;;2.85;2.40;;;16.40;99.90;;;;;;5068015;28;20451;-75
2022/07/16 01:31:31;;;;;;;2.33;1.87;;;16.40;99.90;;;;;;5061094;28;20202;-73
2022/07/16 01:36:42;;;;;;;3.80;2.17;;;16.60;99.90;;;;;;5052021;28;20914;-73
2022/07/16 01:39:18;;;;;;;3.83;2.40;;;16.60;99.90;;;;;;5050363;28;20447;-76
2022/07/16 01:41:50;;;;;;;3.00;2.30;;;16.50;99.90;;;;;;5054278;28;20447;-74
2022/07/16 01:44:17;;;;;;;4.10;2.53;;;16.60;99.90;;;;;;5054098;28;20533;-73
2022/07/16 01:46:45;;;;;;;2.30;2.03;;;16.60;99.90;;;;;;5045704;28;20536;-76
2022/07/16 01:49:11;;;;;;;6.63;2.40;;;16.60;99.90;;;;;;5039922;28;20479;-75
2022/07/16 01:51:39;;;;;;;7.43;2.85;;;16.60;99.90;;;;;;5035127;28;20202;-74
2022/07/16 01:54:06;;;;;;;3.77;2.43;;;16.60;99.90;;;;;;5036535;28;20400;-75
2022/07/16 01:56:34;;;;;;;3.35;2.35;;;16.70;99.90;;;;;;5037588;28;20517;-74
2022/07/16 01:59:01;;;;;;;6.00;2.97;;;16.70;99.90;;;;;;5038205;28;20726;-74
2022/07/16 02:01:29;;;;;;;2.10;1.90;;;16.70;99.90;;;;;;5042179;28;20489;-75
2022/07/16 02:03:56;;;;;;;2.77;1.93;;;16.70;99.90;;;;;;5050757;28;21059;-74
2022/07/16 02:06:23;;;;;;;5.07;2.40;;;16.70;99.90;;;;;;5045712;28;20512;-72
2022/07/16 02:08:50;;;;;;;4.83;2.40;;;16.80;99.90;;;;;;5053414;28;20512;-73
2022/07/16 02:11:18;;;;;;;2.85;2.65;;;16.60;99.90;;;;;;5058975;28;20795;-75
2022/07/16 02:13:47;;;;;;;4.60;2.80;;;16.60;99.90;;;;;;5048785;28;20601;-73
2022/07/16 02:16:19;;;;;;;4.70;2.97;;;16.50;99.90;;;;;;5053261;28;20535;-75
2022/07/16 02:18:46;;;;;;;5.85;3.78;;;16.50;99.90;;;;;;5043239;28;20473;-74
2022/07/16 02:21:13;;;;;;;4.15;3.00;;;16.40;99.90;;;;;;5053122;28;20270;-74
2022/07/16 02:23:42;;;;;;;6.43;3.23;;;16.40;99.90;;;;;;5042954;28;20252;-74
2022/07/16 02:26:09;;;;;;;3.40;3.10;;;16.50;99.90;;;;;;5045615;28;20877;-73
2022/07/16 02:28:36;;;;;;;7.70;3.70;;;16.40;99.90;;;;;;5039356;28;20532;-74
2022/07/16 02:31:04;;;;;;;4.00;3.40;;;16.40;99.90;;;;;;5035831;28;20534;-74
2022/07/16 02:33:31;;;;;;;5.47;4.03;;;16.40;99.90;;;;;;5035946;28;20555;-75
2022/07/16 02:35:58;;;;;;;4.10;3.40;;;16.30;99.90;;;;;;5042827;28;20528;-74
2022/07/16 02:38:25;;;;;;;4.97;4.00;;;16.30;99.90;;;;;;5049731;28;20497;-73
2022/07/16 02:40:52;;;;;;;5.85;4.13;;;16.30;99.90;;;;;;5040734;28;20544;-75
2022/07/16 02:43:19;;;;;;;7.57;4.22;;;16.30;99.90;;;;;;5051438;28;20313;-74
2022/07/16 02:45:46;;;;;;;5.43;3.70;;;16.30;99.90;;;;;;5040298;28;20656;-75
2022/07/16 02:48:14;;;;;;;5.07;3.20;;;16.30;99.90;;;;;;5049056;28;20230;-75
2022/07/16 02:50:41;;;;;;;4.70;3.60;;;16.30;99.90;;;;;;5047705;28;20528;-76
2022/07/16 02:53:08;;;;;;;6.60;3.87;;;16.30;99.90;;;;;;5043397;28;20545;-73
2022/07/16 02:55:36;;;;;;;5.63;3.63;;;16.30;99.90;;;;;;5044567;28;20445;-73
2022/07/16 02:58:04;;;;;;;4.18;3.47;;;16.30;99.90;;;;;;5046792;28;20538;-74
2022/07/16 03:00:32;;;;;;;3.50;3.20;;;16.30;99.90;;;;;;5042988;28;20241;-74
2022/07/16 03:02:59;;;;;;;4.77;3.50;;;16.30;99.90;;;;;;5047684;28;20510;-73
2022/07/16 03:05:28;;;;;;;6.93;4.20;;;16.20;99.90;;;;;;5047966;28;20526;-76
2022/07/16 03:07:55;;;;;;;5.30;2.90;;;16.30;99.90;;;;;;5040996;28;20456;-73
2022/07/16 03:10:22;;;;;;;3.17;2.65;;;16.30;99.90;;;;;;5046435;28;20443;-73
2022/07/16 03:12:49;;;;;;;4.30;3.00;;;16.20;99.90;;;;;;5051914;28;20311;-73
2022/07/16 03:15:16;;;;;;;3.28;2.97;;;16.20;99.90;;;;;;5043797;28;20470;-73
2022/07/16 03:17:43;;;;;;;6.18;2.85;;;16.10;99.90;;;;;;5040450;28;20232;-73
2022/07/16 03:20:12;;;;;;;4.07;3.27;;;16.10;99.90;;;;;;5036111;28;20302;-73
2022/07/16 03:22:44;;;;;;;5.18;3.38;;;16.00;99.90;;;;;;5049149;28;20530;-73
2022/07/16 03:25:20;;;;;;;4.60;3.13;;;15.90;99.90;;;;;;5063051;28;20237;-73
2022/07/16 03:27:47;;;;;;;4.97;3.65;;;15.90;99.90;;;;;;5039129;28;20939;-73
2022/07/16 03:30:17;;;;;;;4.15;3.45;;;15.80;99.90;;;;;;5040574;28;20709;-75
2022/07/16 03:32:44;;;;;;;4.10;3.70;;;15.80;99.90;;;;;;5047151;28;20228;-73
2022/07/16 03:35:13;;;;;;;7.82;4.57;;;15.80;99.90;;;;;;5047284;28;20681;-72
2022/07/16 03:40:24;;;;;;;3.88;3.58;;;16.00;99.90;;;;;;5044602;28;20298;-74
2022/07/16 03:42:51;;;;;;;7.85;3.20;;;15.90;99.90;;;;;;5040084;28;20224;-73
2022/07/16 03:45:18;;;;;;;4.55;3.08;;;16.00;99.90;;;;;;5035121;28;20679;-73
2022/07/16 03:47:45;;;;;;;5.18;3.20;;;15.90;99.90;;;;;;5046937;28;20660;-73
2022/07/16 03:50:12;;;;;;;5.50;3.17;;;16.00;99.90;;;;;;5035627;28;20245;-73
2022/07/16 03:52:39;;;;;;;3.95;2.92;;;16.00;99.90;;;;;;5044658;28;20616;-75
2022/07/16 03:55:07;;;;;;;6.70;3.30;;;16.10;99.90;;;;;;5042455;28;20243;-73
2022/07/16 03:57:35;;;;;;;3.85;2.70;;;16.10;99.90;;;;;;5040461;28;20283;-73
2022/07/16 04:00:02;;;;;;;5.22;2.75;;;16.10;99.90;;;;;;5045403;28;20275;-75
2022/07/16 04:02:29;;;;;;;3.25;2.50;;;16.10;99.90;;;;;;5040115;28;20204;-74
2022/07/16 04:04:56;;;;;;;3.75;2.85;;;16.10;99.90;;;;;;5048390;28;20299;-73
2022/07/16 04:07:23;;;;;;;6.88;3.10;;;16.10;99.90;;;;;;5040319;28;20204;-76
2022/07/16 04:09:50;;;;;;;2.70;1.85;;;16.20;99.90;;;;;;5047597;28;20195;-74
2022/07/16 04:12:17;;;;;;;6.50;2.67;;;16.30;99.90;;;;;;5048187;28;20680;-73
2022/07/16 04:14:45;;;;;;;8.57;2.88;;;16.30;99.90;;;;;;5053365;28;20198;-73
2022/07/16 04:17:12;;;;;;;7.00;3.00;;;16.30;99.90;;;;;;5045394;28;20297;-73
2022/07/16 04:19:39;;;;;;;3.78;2.88;;;16.40;99.90;;;;;;5042412;28;20207;-73
2022/07/16 04:22:06;;;;;;;5.93;2.95;;;16.50;99.90;;;;;;5040686;28;20340;-74
2022/07/16 04:24:33;;;;;;;2.80;2.10;;;16.80;99.90;;;;;;5046564;28;20307;-74
2022/07/16 04:27:00;;;;;;;4.53;2.37;;;17.00;99.90;;;;;;5044549;28;20460;-74
2022/07/16 04:29:27;;;;;;;3.73;2.20;;;17.50;99.90;;;;;;5039195;28;20460;-74
2022/07/16 04:31:55;;;;;;;2.93;1.97;;;18.20;99.90;;;;;;5040036;28;20454;-74
2022/07/16 04:34:22;;;;;;;3.57;2.07;;;18.80;99.90;;;;;;5039507;28;20481;-74
2022/07/16 04:36:49;;;;;;;3.17;2.30;;;19.30;99.90;;;;;;5049677;28;20443;-74
2022/07/16 04:39:16;;;;;;;5.70;3.43;;;19.40;99.90;;;;;;5044856;28;20460;-74
2022/07/16 04:41:43;;;;;;;4.40;1.73;;;19.70;99.90;;;;;;5049445;28;20907;-74
2022/07/16 04:44:10;;;;;;;3.10;1.93;;;20.20;99.90;;;;;;5051179;28;20462;-74
2022/07/16 04:46:37;;;;;;;3.63;2.37;;;20.80;99.90;;;;;;5050684;28;20478;-75
2022/07/16 04:49:05;;;;;;;4.33;1.60;;;21.40;99.90;;;;;;5052330;28;20478;-74
2022/07/16 04:51:32;;;;;;;3.30;1.97;;;21.80;99.90;;;;;;5048230;28;20441;-74
2022/07/16 04:53:59;;;;;;;4.27;1.60;;;22.30;99.90;;;;;;5049878;28;20550;-75
2022/07/16 04:56:26;;;;;;;5.53;1.67;;;22.80;99.90;;;;;;5047643;28;20445;-74
2022/07/16 04:58:53;;;;;;;2.90;1.63;;;22.90;99.90;;;;;;5043028;28;20458;-74
2022/07/16 05:01:20;;;;;;;3.00;1.50;;;22.70;99.90;;;;;;5048133;28;20510;-75
2022/07/16 05:03:47;;;;;;;6.47;2.03;;;23.20;99.90;;;;;;5047686;28;20562;-74
2022/07/16 05:06:15;;;;;;;3.63;1.63;;;22.70;99.90;;;;;;5051342;28;20500;-73
2022/07/16 05:08:42;;;;;;;3.30;1.90;;;22.80;99.90;;;;;;5047807;28;20492;-75
2022/07/16 05:11:09;;;;;;;5.10;1.70;;;23.10;99.90;;;;;;5059225;28;20541;-74
2022/07/16 05:13:36;;;;;;;3.40;1.47;;;23.30;99.90;;;;;;5060803;28;20509;-74
2022/07/16 05:16:04;;;;;;;1.83;1.40;;;23.90;99.90;;;;;;5057946;28;20514;-74
2022/07/16 05:18:31;;;;;;;2.40;1.43;;;24.10;98.90;;;;;;5068025;28;20451;-73
2022/07/16 05:20:58;;;;;;;2.83;1.80;;;23.80;99.40;;;;;;5048372;28;20506;-73
2022/07/16 05:23:26;;;;;;;2.80;1.30;;;24.00;99.80;;;;;;5053463;28;20492;-74
2022/07/16 05:25:53;;;;;;;4.03;2.07;;;24.40;97.80;;;;;;5053674;28;20504;-74
2022/07/16 05:28:20;;;;;;;4.47;2.00;;;24.10;97.70;;;;;;5047073;28;20457;-74
2022/07/16 05:30:48;;;;;;;6.93;1.50;;;23.60;98.70;;;;;;5049524;28;20451;-73
2022/07/16 05:33:15;;;;;;;2.67;1.43;;;23.50;99.50;;;;;;5051931;28;20549;-71
2022/07/16 05:35:42;;;;;;;2.97;1.57;;;24.20;98.90;;;;;;5048821;28;20530;-72
2022/07/16 05:38:09;;;;;;;4.40;1.80;;;24.50;97.20;;;;;;5047593;28;20493;-73
2022/07/16 05:40:37;;;;;;;3.67;1.33;;;24.40;97.50;;;;;;5051935;28;20447;-73
2022/07/16 05:43:06;;;;;;;4.60;1.57;;;24.60;97.50;;;;;;5045438;28;20466;-71
2022/07/16 05:45:33;;;;;;;3.20;1.57;;;25.30;96.10;;;;;;5046930;28;20838;-72
2022/07/16 05:48:00;;;;;;;5.23;2.00;;;25.90;94.40;;;;;;5052837;28;20955;-73
2022/07/16 05:50:27;;;;;;;2.70;1.23;;;26.30;92.80;;;;;;5039853;28;20553;-74
2022/07/16 05:52:54;;;;;;;5.13;1.50;;;26.30;92.50;;;;;;5061294;28;20477;-76
2022/07/16 05:55:21;;;;;;;3.70;1.70;;;26.40;92.30;;;;;;5042448;28;20451;-71
2022/07/16 05:57:50;;;;;;;6.10;2.00;;;26.50;91.70;;;;;;5044992;28;20458;-72
2022/07/16 06:00:17;;;;;;;4.00;2.30;;;26.00;91.90;;;;;;5046150;28;20887;-73
2022/07/16 06:02:44;;;;;;;3.87;2.00;;;26.10;92.10;;;;;;5044184;28;20584;-73
2022/07/16 06:05:11;;;;;;;7.17;2.53;;;26.40;92.00;;;;;;5047031;28;20533;-73
2022/07/16 06:07:38;;;;;;;4.77;1.70;;;27.10;90.90;;;;;;5053565;28;20443;-74
2022/07/16 06:10:06;;;;;;;3.03;2.07;;;26.90;90.50;;;;;;5044747;28;20438;-73
2022/07/16 06:12:33;;;;;;;9.40;3.33;;;26.70;90.30;;;;;;5037781;28;20984;-72
2022/07/16 06:15:01;;;;;;;4.97;2.97;;;25.90;91.10;;;;;;5052865;28;20536;-74
2022/07/16 06:17:28;;;;;;;4.33;2.30;;;25.30;91.90;;;;;;5035990;28;20537;-73
2022/07/16 06:19:55;;;;;;;4.77;2.90;;;25.20;92.70;;;;;;5041703;28;20456;-72
2022/07/16 06:22:22;;;;;;;8.33;2.63;;;24.90;92.60;;;;;;5050436;28;20485;-72
2022/07/16 06:24:49;;;;;;;8.20;2.63;;;24.80;92.80;;;;;;5042315;28;20541;-72
2022/07/16 06:27:16;;;;;;;5.47;2.00;;;24.00;93.40;;;;;;5055729;28;20453;-71
2022/07/16 06:29:44;;;;;;;7.50;2.13;;;23.20;95.10;;;;;;5045127;28;20520;-71
2022/07/16 06:32:12;;;;;;;6.40;3.33;;;22.50;96.90;;;;;;5053322;28;20465;-72
2022/07/16 06:34:39;;;;;;;5.90;2.37;;;21.90;98.70;;;;;;5044437;28;20477;-72
2022/07/16 06:37:06;;;;;;;5.50;2.53;;;21.70;99.90;;;;;;5054738;28;20446;-71
2022/07/16 06:39:33;;;;;;;2.93;1.70;;;22.40;99.10;;;;;;5040814;28;20476;-71
2022/07/16 06:42:00;;;;;;;4.40;2.13;;;23.40;96.40;;;;;;5038757;28;20564;-71
2022/07/16 06:44:28;;;;;;;7.80;2.80;;;24.30;94.20;;;;;;5047149;28;20498;-72
2022/07/16 06:46:55;;;;;;;2.90;1.60;;;25.50;92.70;;;;;;5052654;28;20545;-71
2022/07/16 06:49:24;;;;;;;5.07;2.57;;;26.50;90.90;;;;;;5047179;28;20458;-72
2022/07/16 06:51:50;;;;;;;3.50;1.50;;;27.40;86.40;;;;;;5049343;28;20530;-71
2022/07/16 06:54:17;;;;;;;10.90;3.90;;;27.60;84.80;;;;;;5050061;28;20476;-72
2022/07/16 06:56:45;;;;;;;3.33;1.73;;;26.90;84.50;;;;;;5038657;28;20440;-71
2022/07/16 06:59:14;;;;;;;4.50;2.43;;;25.70;86.60;;;;;;5053156;28;20449;-71
2022/07/16 07:01:41;;;;;;;7.10;2.17;;;24.70;90.20;;;;;;5043042;28;20576;-73
2022/07/16 07:04:09;;;;;;;7.27;2.10;;;24.00;91.20;;;;;;5050876;28;20513;-71
2022/07/16 07:06:38;;;;;;;5.80;2.17;;;23.70;91.90;;;;;;5049868;28;20445;-72
2022/07/16 07:09:05;;;;;;;3.90;1.60;;;23.10;93.30;;;;;;5069537;28;20450;-73
2022/07/16 07:11:32;;;;;;;7.10;1.60;;;22.30;94.20;;;;;;5058417;28;20462;-74
2022/07/16 07:13:59;;;;;;;6.50;1.90;;;21.50;96.80;;;;;;5056648;28;20497;-73
2022/07/16 07:16:26;;;;;;;4.20;1.57;;;21.00;96.90;;;;;;5050717;28;20864;-71
2022/07/16 07:18:53;;;;;;;7.13;1.70;;;20.60;98.30;;;;;;5051562;28;20566;-72
2022/07/16 07:21:20;;;;;;;9.33;2.40;;;21.20;97.80;;;;;;5045528;28;20643;-73
2022/07/16 07:23:48;;;;;;;10.73;3.07;;;22.40;95.30;;;;;;5049399;28;20469;-74
2022/07/16 07:26:15;;;;;;;4.50;1.60;;;23.90;92.20;;;;;;5047510;28;20856;-74
2022/07/16 07:28:42;;;;;;;3.50;1.60;;;25.20;89.70;;;;;;5045542;28;20458;-74
2022/07/16 07:31:09;;;;;;;4.50;1.63;;;26.30;82.50;;;;;;5044132;28;20816;-74
2022/07/16 07:33:37;;;;;;;5.50;1.50;;;26.90;79.80;;;;;;5051198;28;20576;-73
2022/07/16 07:36:05;;;;;;;2.90;1.53;;;27.40;74.90;;;;;;5040279;28;20450;-72
2022/07/16 07:38:33;;;;;;;7.70;2.00;;;27.50;74.00;;;;;;5058219;28;20442;-75
2022/07/16 07:41:02;;;;;;;5.23;2.27;;;28.10;72.90;;;;;;5059400;28;20458;-74
2022/07/16 07:43:29;;;;;;;3.57;1.43;;;27.70;71.00;;;;;;5046607;28;20553;-73
2022/07/16 07:45:57;;;;;;;2.93;1.50;;;27.30;72.50;;;;;;5043408;28;20454;-74
2022/07/16 07:48:24;;;;;;;4.00;1.60;;;27.00;73.50;;;;;;5045734;28;20528;-74
2022/07/16 07:50:52;;;;;;;9.37;1.50;;;26.20;74.80;;;;;;5046168;28;20542;-72
2022/07/16 07:53:22;;;;;;;3.70;1.60;;;25.10;76.90;;;;;;5043169;28;20555;-72
2022/07/16 07:55:49;;;;;;;4.10;1.23;;;25.00;78.90;;;;;;5046930;28;20553;-73
2022/07/16 07:58:17;;;;;;;6.10;1.77;;;25.10;77.50;;;;;;5043536;28;20541;-72
2022/07/16 08:00:44;;;;;;;4.20;1.67;;;25.10;77.10;;;;;;5051209;28;20784;-75
2022/07/16 08:03:14;;;;;;;5.77;1.60;;;25.20;75.70;;;;;;5049937;28;20543;-74
2022/07/16 08:05:42;;;;;;;3.17;0.90;;;25.70;75.00;;;;;;5052576;28;20478;-75
2022/07/16 08:08:09;;;;;;;4.10;1.47;;;26.80;72.10;;;;;;5045779;28;20511;-73
2022/07/16 08:10:37;;;;;;;6.00;1.30;;;27.60;69.20;;;;;;5055012;28;20442;-73
2022/07/16 08:13:04;;;;;;;3.50;1.17;;;28.70;67.00;;;;;;5048545;28;20533;-72
2022/07/16 08:15:33;;;;;;;2.03;1.13;;;29.20;64.50;;;;;;5059341;28;20453;-72
2022/07/16 08:18:01;;;;;;;3.60;1.13;;;29.90;62.90;;;;;;5060883;28;20532;-75
2022/07/16 08:20:28;;;;;;;3.20;1.00;;;29.90;62.00;;;;;;5052562;28;20458;-72
2022/07/16 08:22:55;;;;;;;4.20;1.80;;;28.40;62.70;;;;;;5062191;28;20968;-72
2022/07/16 08:28:08;;;;;;;6.17;1.80;;;28.10;65.10;;;;;;5049109;28;20448;-73
2022/07/16 08:30:37;;;;;;;5.00;1.50;;;27.40;66.80;;;;;;5043805;28;20450;-73
2022/07/16 08:33:04;;;;;;;4.57;1.60;;;26.50;68.70;;;;;;5053033;28;20520;-72
2022/07/16 08:35:31;;;;;;;2.90;1.50;;;26.40;71.00;;;;;;5048230;28;20447;-73
2022/07/16 08:37:58;;;;;;;4.00;1.63;;;25.80;72.30;;;;;;5046014;28;20529;-72
2022/07/16 08:40:25;;;;;;;6.13;1.77;;;25.10;74.90;;;;;;5052052;28;20541;-72
2022/07/16 08:42:53;;;;;;;6.70;1.60;;;25.30;75.70;;;;;;5043449;28;20565;-71
2022/07/16 08:45:23;;;;;;;4.03;1.33;;;24.70;76.10;;;;;;5052170;28;20454;-71
2022/07/16 08:47:53;;;;;;;4.40;1.50;;;24.40;77.60;;;;;;5038305;28;20547;-73
2022/07/16 08:50:21;;;;;;;2.50;1.20;;;24.00;78.10;;;;;;5045259;28;20540;-71
2022/07/16 08:52:51;;;;;;;4.07;1.17;;;23.70;78.80;;;;;;5051530;28;20471;-73
2022/07/16 08:55:19;;;;;;;5.83;1.53;;;23.40;79.80;;;;;;5065573;28;20458;-73
2022/07/16 08:57:49;;;;;;;5.93;1.43;;;23.30;79.20;;;;;;5062128;28;20802;-71
2022/07/16 09:00:17;;;;;;;6.80;1.63;;;23.10;79.70;;;;;;5045805;28;20827;-73
2022/07/16 09:02:45;;;;;;;8.27;1.50;;;23.00;79.70;;;;;;5046664;28;20545;-73
2022/07/16 09:05:14;;;;;;;3.40;1.40;;;22.80;80.70;;;;;;5048280;28;20439;-73
2022/07/16 09:07:41;;;;;;;7.97;1.70;;;22.90;81.90;;;;;;5042704;28;20846;-72
2022/07/16 09:10:10;;;;;;;3.30;1.50;;;24.10;81.20;;;;;;5047856;28;20913;-71
2022/07/16 09:12:39;;;;;;;5.97;1.57;;;24.50;78.80;;;;;;5038160;28;20800;-73
2022/07/16 09:15:25;;;;;;;2.60;1.27;;;24.10;77.70;;;;;;5045432;28;20450;-71
2022/07/16 09:18:09;;;;;;;2.80;1.00;;;23.60;78.90;;;;;;5056754;28;20495;-73
2022/07/16 09:20:39;;;;;;;3.50;1.27;;;23.10;81.00;;;;;;5045589;28;20849;-74
2022/07/16 09:23:21;;;;;;;4.80;1.80;;;22.50;83.00;;;;;;5044189;28;20577;-73
2022/07/16 09:25:49;;;;;;;4.40;1.40;;;21.90;87.40;;;;;;5049422;28;20539;-72
2022/07/16 09:28:17;;;;;;;4.40;1.67;;;21.40;90.00;;;;;;5042549;28;20493;-73
2022/07/16 09:30:44;;;;;;;4.47;2.30;;;20.90;91.60;;;;;;5040346;28;20438;-72
2022/07/16 09:33:14;;;;;;;4.97;1.40;;;21.20;91.10;;;;;;5046539;28;20481;-72
2022/07/16 09:35:42;;;;;;;3.63;1.60;;;22.40;90.00;;;;;;5038482;28;20450;-72
2022/07/16 09:38:10;;;;;;;9.90;1.50;;;23.00;86.50;;;;;;5057908;28;20437;-73
2022/07/16 09:40:39;;;;;;;7.00;2.57;;;23.50;83.50;;;;;;5040621;28;20451;-73
2022/07/16 09:43:22;;;;;;;3.40;1.13;;;23.70;80.60;;;;;;5042688;28;20546;-73
2022/07/16 09:45:52;;;;;;;10.20;1.43;;;23.50;80.50;;;;;;5041769;28;20446;-74
2022/07/16 09:48:21;;;;;;;2.83;1.00;;;23.20;80.30;;;;;;5043247;28;20450;-73
2022/07/16 09:50:50;;;;;;;4.63;1.30;;;23.80;80.40;;;;;;5034344;28;20542;-74
2022/07/16 09:53:18;;;;;;;6.33;1.80;;;25.10;78.50;;;;;;5043174;28;20553;-73
2022/07/16 09:56:02;;;;;;;3.80;1.47;;;25.70;76.60;;;;;;5053319;28;20511;-73
2022/07/16 09:58:30;;;;;;;2.80;1.53;;;26.00;73.80;;;;;;5053303;28;20454;-74
2022/07/16 10:00:58;;;;;;;6.07;1.70;;;25.80;73.60;;;;;;5050671;28;20443;-72
2022/07/16 10:03:26;;;;;;;6.73;1.63;;;25.20;75.70;;;;;;5038319;28;20576;-74
2022/07/16 10:05:54;;;;;;;4.73;1.50;;;24.60;75.20;;;;;;5042607;28;20492;-73
2022/07/16 10:08:21;;;;;;;7.83;2.60;;;24.60;77.80;;;;;;5052042;28;20523;-73
2022/07/16 10:10:49;;;;;;;3.30;1.30;;;24.70;75.60;;;;;;5042932;28;20541;-71
2022/07/16 10:13:17;;;;;;;5.03;1.50;;;24.70;76.70;;;;;;5038430;28;20573;-73
2022/07/16 10:15:46;;;;;;;4.57;1.40;;;24.80;75.50;;;;;;5043374;28;20453;-71
2022/07/16 10:18:36;;;;;;;2.80;0.97;;;24.60;75.10;;;;;;5040454;28;20448;-71
2022/07/16 10:21:13;;;;;;;3.50;1.30;;;24.60;75.80;;;;;;5042075;28;20522;-72
2022/07/16 10:23:42;;;;;;;8.40;1.70;;;25.40;75.10;;;;;;5046601;28;20481;-74
2022/07/16 10:26:13;;;;;;;5.53;2.50;;;25.70;73.10;;;;;;5043523;28;20603;-73
2022/07/16 10:28:46;;;;;;;3.30;1.23;;;26.10;73.00;;;;;;5048923;28;20457;-73
2022/07/16 10:31:38;;;;;;;7.53;2.10;;;26.40;71.10;;;;;;5043722;28;20475;-73
2022/07/16 10:34:39;;;;;;;3.53;1.53;;;26.50;71.10;;;;;;5051232;28;20829;-72
2022/07/16 10:37:11;;;;;;;5.43;1.43;;;26.40;71.00;;;;;;5050976;28;20544;-73
2022/07/16 10:40:00;;;;;;;5.07;1.90;;;25.80;72.70;;;;;;5048133;28;20438;-74
2022/07/16 10:42:27;;;;;;;4.10;1.37;;;25.60;73.60;;;;;;5051400;28;20477;-74
2022/07/16 10:44:54;;;;;;;6.80;1.47;;;25.20;73.80;;;;;;5051579;28;20450;-72
2022/07/16 10:47:21;;;;;;;4.93;1.97;;;24.80;76.50;;;;;;5047501;28;20541;-71
2022/07/16 10:50:08;;;;;;;5.37;1.50;;;24.40;76.30;;;;;;5059894;28;20521;-71
2022/07/16 10:52:48;;;;;;;4.10;1.60;;;24.00;77.40;;;;;;5048563;28;20441;-73
2022/07/16 10:55:31;;;;;;;4.77;1.60;;;23.10;78.80;;;;;;5050614;28;20474;-74
2022/07/16 10:57:58;;;;;;;4.60;1.97;;;22.70;80.80;;;;;;5040703;28;20474;-73
2022/07/16 11:00:26;;;;;;;6.80;4.00;;;22.80;81.70;;;;;;5039339;28;20485;-72
2022/07/16 11:02:59;;;;;;;4.20;1.33;;;23.10;82.50;;;;;;5043616;28;20486;-73
2022/07/16 11:05:26;;;;;;;4.30;1.53;;;23.20;78.90;;;;;;5052620;28;20810;-73
2022/07/16 11:07:55;;;;;;;4.20;1.87;;;23.20;78.10;;;;;;5047469;28;20447;-74
2022/07/16 11:10:23;;;;;;;3.20;1.60;;;23.20;79.20;;;;;;5052439;28;20533;-73
2022/07/16 11:12:50;;;;;;;5.27;1.70;;;23.40;79.40;;;;;;5049453;28;20473;-73
2022/07/16 11:15:17;;;;;;;4.77;1.60;;;23.60;79.50;;;;;;5055935;28;20509;-71
2022/07/16 11:17:54;;;;;;;3.90;1.47;;;23.20;79.30;;;;;;5054755;28;20560;-72
2022/07/16 11:20:21;;;;;;;7.50;2.97;;;22.60;81.60;;;;;;5042172;28;20940;-74
2022/07/16 11:22:49;;;;;;;6.60;1.63;;;22.40;82.50;;;;;;5042581;28;20488;-74
2022/07/16 11:25:17;;;;;;;4.63;1.20;;;22.00;83.10;;;;;;5050858;28;20459;-75
2022/07/16 11:27:44;;;;;;;1.53;1.03;;;21.80;80.30;;;;;;5044880;28;20518;-71
2022/07/16 11:30:12;;;;;;;3.77;1.60;;;21.60;80.20;;;;;;5051674;28;20807;-73
2022/07/16 11:32:42;;;;;;;6.27;1.37;;;21.60;82.00;;;;;;5045156;28;20974;-72
2022/07/16 11:35:10;;;;;;;3.67;1.43;;;21.70;81.30;;;;;;5038649;28;20545;-74
2022/07/16 11:37:50;;;;;;;3.93;1.00;;;22.00;80.50;;;;;;5037574;28;20442;-74
2022/07/16 11:40:18;;;;;;;3.17;1.70;;;22.20;80.10;;;;;;5037347;28;20809;-73
2022/07/16 11:42:58;;;;;;;3.50;1.20;;;22.50;79.10;;;;;;5038106;28;20490;-73
2022/07/16 11:45:27;;;;;;;5.37;1.40;;;22.50;76.60;;;;;;5052231;28;20526;-73
2022/07/16 11:48:09;;;;;;;5.07;1.23;;;22.50;75.50;;;;;;5047950;28;20453;-73
2022/07/16 11:50:36;;;;;;;4.40;1.50;;;22.60;74.70;;;;;;5039588;28;20465;-73
2022/07/16 11:53:03;;;;;;;4.50;1.07;;;22.90;75.00;;;;;;5054147;28;20567;-74
2022/07/16 11:55:33;;;;;;;3.17;1.10;;;23.00;73.80;;;;;;5048839;28;20469;-73
2022/07/16 11:58:00;;;;;;;1.70;1.13;;;23.00;73.70;;;;;;5044827;28;20441;-74
2022/07/16 12:00:27;;;;;;;5.03;1.47;;;22.80;74.00;;;;;;5049511;28;20479;-74
2022/07/16 12:02:57;;;;;;;7.87;1.40;;;23.10;76.70;;;;;;5053769;28;20490;-71
2022/07/16 12:05:29;;;;;;;4.57;2.00;;;23.10;74.50;;;;;;5041727;28;20439;-71
2022/07/16 12:07:56;;;;;;;3.70;1.80;;;23.20;76.80;;;;;;5054546;28;20446;-72
2022/07/16 12:10:25;;;;;;;1.70;0.90;;;23.00;74.90;;;;;;5044683;28;20462;-73
2022/07/16 12:13:04;;;;;;;4.13;1.70;;;22.90;74.60;;;;;;5034696;28;20470;-72
2022/07/16 12:15:31;;;;;;;3.60;1.03;;;22.90;75.00;;;;;;5040914;28;20536;-72
2022/07/16 12:18:13;;;;;;;6.00;3.43;;;23.00;75.30;;;;;;5050512;28;20442;-75
2022/07/16 12:20:40;;;;;;;4.57;1.63;;;23.10;75.40;;;;;;5046090;28;20446;-73
2022/07/16 12:23:10;;;;;;;5.13;1.37;;;23.30;75.80;;;;;;5050684;28;20490;-74
2022/07/16 12:25:38;;;;;;;5.30;1.60;;;23.30;76.50;;;;;;5050558;28;20463;-73
2022/07/16 12:28:09;;;;;;;3.10;1.20;;;23.10;76.90;;;;;;5050336;28;20544;-74
2022/07/16 12:30:38;;;;;;;6.77;2.07;;;22.70;78.10;;;;;;5048955;28;20442;-73
2022/07/16 12:33:07;;;;;;;5.53;1.90;;;22.50;77.70;;;;;;5055407;28;20552;-73
2022/07/16 12:35:43;;;;;;;4.63;1.27;;;22.30;78.20;;;;;;5048018;28;20877;-72
2022/07/16 12:38:48;;;;;;;6.87;1.87;;;22.20;78.70;;;;;;5052495;28;20460;-74
2022/07/16 12:41:17;;;;;;;3.23;1.40;;;22.30;79.30;;;;;;5047847;28;20457;-75
2022/07/16 12:43:49;;;;;;;4.73;1.33;;;22.40;78.70;;;;;;5053623;28;20518;-74
2022/07/16 12:46:17;;;;;;;4.07;1.40;;;22.30;78.80;;;;;;5048280;28;20499;-74
2022/07/16 12:48:47;;;;;;;5.10;2.53;;;22.30;79.20;;;;;;5068810;28;20466;-76
2022/07/16 12:51:17;;;;;;;6.10;2.40;;;22.40;79.80;;;;;;5073434;28;20425;-74
2022/07/16 12:53:44;;;;;;;6.73;2.20;;;22.40;79.90;;;;;;5043421;28;20474;-76
2022/07/16 12:58:57;;;;;;;7.37;1.97;;;22.40;79.70;;;;;;5050509;28;20424;-75
2022/07/16 13:01:25;;;;;;;2.70;1.10;;;22.50;80.00;;;;;;5049295;28;20453;-74
2022/07/16 13:03:52;;;;;;;8.63;1.50;;;22.60;78.90;;;;;;5049796;28;20518;-74
2022/07/16 13:06:20;;;;;;;7.73;2.20;;;22.60;79.50;;;;;;5053288;28;20508;-75